Airfield :
LOGIN :

Register | Disclaimer

   EN    FR    IT 

 










Legend :    VFR   Marginal VFR   IFR   Intensive IFR   Very Intensive IFR
Visi :
Ceiling :
>= 8 km
>= 3000ft
5 to 8 km
1000 to 3000 ft
1500m to 5 km
500 to 1000 ft
800 to 1500m
200 to 500 ft
< 800m
< 200 ft
Symbols :   Thunderstorms  Fog  Heavy snow  Heavy precipitations  Wind > 20 kt
SIGMETs :     Misc.  Thunderstorms  Icing  Turbulence  Mountain Waves  Volcanic Ashes






- Airport Elevation : 49 ft
- IATA code : GLZ


EHGR - Gilze-Rijen Airbase

CURRENT METAR :
  • 210455Z AUTO 34005KT 290V050 7000 BR FEW015CB OVC076 08/05 Q1017 WHT

EXPIRED METARs :
  • 210425Z AUTO 32004KT 290V010 7000 BR FEW015CB OVC077 06/05 Q1016 WHT
  • 210406Z AUTO 33003KT 280V030 6000 BR FEW015CB SCT065 OVC074 06/04 Q1016 WHT
  • 210355Z AUTO 32003KT 290V010 6000 BR FEW015CB OVC065 06/05 Q1016 WHT
  • 210336Z AUTO 30003KT 280V340 4300 BR FEW015CB BKN075 04/03 Q1016 GRN
  • 210325Z AUTO VRB01KT 5000 BR FEW015CB OVC074 04/03 Q1016 WHT
  • 210308Z AUTO 34001KT 6000 BR FEW015CB SCT068 OVC073 05/04 Q1016 WHT
  • 210255Z AUTO 32001KT 5000 BR FEW015CB SCT068 OVC074 05/03 Q1016 WHT
  • 210245Z AUTO VRB01KT 3000 BR FEW015CB BKN074 05/03 Q1016 YLO
  • 210225Z AUTO VRB01KT 6000 BR SCT076 05/03 Q1016 WHT
  • 210214Z AUTO VRB01KT 7000 BR NCD 05/03 Q1016 WHT
  • 210201Z AUTO VRB02KT 8000 BR NCD 05/03 Q1016 BLU

Expired Forecast.



MET'MAP, your aeronautical weather chart ! - Copyright ORBIFLY December 2007 - Disclaimer

ORBIFLY MET'MAP TEAM :

Programming & Development : Alexandra Zaïnal
Concept & original design : Baudouin d'Aumeries
Assistance for programming : Marc-Olivier Méhu
Technical & hardware support : Manuel Goepfert

Contact : metmap@orbifly.com




SOURCES & CREDITS :

   NOAA